Portada
METAR-TAF:

METAR-TAF

Aeropuertos :

Jackson Municipal Airport

Jackson, Minnesota, Estados Unidos

latitud: 43-39N, longitud: 094-59W, altitud: 441 m

Observación

El informe se hizo hace 1 hora y 5 minutos, a las 23:55 UTC
Viento 17 kt del noroeste con ráfagas de 25 kt
Temperatura 22°C
Humedad 25%
Presión 1016 hPa
Visibilidad: 16.1 km
Cielo despejado

METAR: KMJQ 282355Z AUTO 31017G25KT 10SM CLR 22/01 A3001 RMK AO2 PWINO

Hora: 20:00 (01:00 UTC)


TAF: falta

Observaciones y pronósticos meteorológicos de más de 4000 aeropuertos (mensajes METAR y TAF).

Los puntos amarillos y rojos representan las estaciones disponibles.

Ponga el ratón en el punto deseado para ver el nombre de la estación.

Haga clic para ver las observaciones y los pronósticos meteorológicos.

Para cambiar el mapa : haga clic en los botones verdes con una cruz de color negro para hacer un zoom, en el botón verde con un guión para alejar o en las flechas verdes para mapas adyacentes.


METAR-TAF: